Huvudsida
METAR-TAF:

METAR-TAF

Flygplatser :

Abu Dhabi Bateen Airport

Abu Dhabi Bateen, Förenade Arabemiraten

latitud: 24-26N, longitud: 054-28E, höjd: 5 m

Aktuellt väderrapport

Denna rapport gjordes för 38 minuter sedan, klockan 11:00 UTC
Vind 12 kt från nordväst
Temperatur 36°C
Fuktighet 57%
Tryck 996 hPa
Sikt: 9000 m

METAR: OMAD 201100Z 32012KT 9000 NSC 36/26 Q0996 NOSIG

Tid: 15:38 (11:38 UTC)

Väderprognos

Denna rapport gjordes för 6 timmar och 38 minuter sedan, klockan 05:00 UTC
Prognos gäller från 20 kl. 06 UTC till 21 kl. 12 UTC
Vind 15 kt från nordväst
Sikt: 8000 m
Sannolikhet 30%
från 20 kl. 08 UTC till 20 kl. 14 UTC
Vind 20 kt från nordväst
Sikt: 4000 m
högt damm drev
Blir
från 20 kl. 20 UTC till 20 kl. 22 UTC
Vind 5 kt från väst/nordväst
Blir
från 21 kl. 06 UTC till 21 kl. 08 UTC
Vind 15 kt från nordväst

TAF: OMAD 200500Z 2006/2112 31015KT 8000 NSC PROB30 2008/2014 31020KT 4000 BLDU BECMG 2020/2022 29005KT BECMG 2106/2108 31015KT

Aktuella väderrapporter och prognoser från 4000 flygplatser (METAR- och TAF-rapporter).

De tillgängliga stationerna syns som gula och röda prickar på kartan.

För musen över prickarna för att se namnen på stationerna.

Klicka sedan för att få väderrapporter och prognoser.

För att ändra kartan: Klicka på de gröna knapparna med ett svart kors på för att zooma in; den gröna knappen med ett streck på för att zooma ut; eller på de gröna pilarna för angränsande kartor.


METAR-TAF: